This is the latest recevied weather packets stored in our database for station/object DK4DAX-2. If no packets are shown the sender has not sent any weather packets the latest 10 day(s).
| Time | Temp. | Humidity | Pressure | Rain* | Wind** | Luminosity | Snow |
|---|---|---|---|---|---|---|---|
| 1788093904 | 27.78° C | 33% | 1010.4 hPa | 0 mm | - | - | - |
| 1788093003 | 28.33° C | 33% | 1010.3 hPa | 0 mm | - | - | - |
| 1788092103 | 29.44° C | 31% | 1010.4 hPa | 0 mm | - | - | - |
| 1788091204 | 27.78° C | 34% | 1010.4 hPa | 0 mm | - | - | - |
| 1788090303 | 26.11° C | 39% | 1010.2 hPa | 0 mm | - | - | - |
| 1788089404 | 27.22° C | 33% | 1010.4 hPa | 0 mm | - | - | - |
| 1788088503 | 25° C | 42% | 1010.3 hPa | 0 mm | - | - | - |
| 1788087603 | 24.44° C | 45% | 1010.4 hPa | 0 mm | - | - | - |
| 1788086704 | 23.89° C | 46% | 1010.3 hPa | 0 mm | - | - | - |
| 1788085803 | 23.89° C | 48% | 1010.4 hPa | 0 mm | - | - | - |
| 1788084903 | 23.33° C | 49% | 1010.5 hPa | 0 mm | - | - | - |
| 1788084004 | 22.78° C | 50% | 1010.5 hPa | 0 mm | - | - | - |
| 1788083103 | 22.78° C | 51% | 1010.2 hPa | 0 mm | - | - | - |
| 1788082203 | 22.22° C | 52% | 1010.3 hPa | 0 mm | - | - | - |
| 1788081303 | 21.11° C | 55% | 1010.2 hPa | 0 mm | - | - | - |
| 1788080404 | 21.11° C | 56% | 1010.3 hPa | 0 mm | - | - | - |
| 1788079503 | 21.11° C | 55% | 1010 hPa | 0 mm | - | - | - |
| 1788078603 | 21.11° C | 55% | 1010 hPa | 0 mm | - | - | - |
| 1788077704 | 21.11° C | 55% | 1009.7 hPa | 0 mm | - | - | - |
| 1788076803 | 21.11° C | 54% | 1009.4 hPa | 0 mm | - | - | - |
| 1788075903 | 21.11° C | 56% | 1009.4 hPa | 0 mm | - | - | - |
| 1788075004 | 20.56° C | 57% | 1009.2 hPa | 0 mm | - | - | - |
| 1788074103 | 20.56° C | 57% | 1008.9 hPa | 0 mm | - | - | - |
| 1788073203 | 20.56° C | 59% | 1008.9 hPa | 0 mm | - | - | - |
| 1788072304 | 20° C | 60% | 1008.8 hPa | 0 mm | - | - | - |
* Rain latest hour (hover to see other rain measurements)
** Current wind speed in m/s (hover to see current wind gust speed)